sensor_id;sensor_type;location;lat;lon;timestamp;pressure;altitude;pressure_sealevel;temperature;humidity
39443;BME280;25147;52.142;9.960;2024-02-15T00:02:10;100701.16;;;9.88;100.00
39443;BME280;25147;52.142;9.960;2024-02-15T00:04:36;100702.03;;;9.90;100.00
39443;BME280;25147;52.142;9.960;2024-02-15T00:07:05;100700.31;;;9.86;100.00
39443;BME280;25147;52.142;9.960;2024-02-15T00:09:31;100617.94;;;9.38;100.00
39443;BME280;25147;52.142;9.960;2024-02-15T00:11:58;100694.19;;;9.88;100.00
39443;BME280;25147;52.142;9.960;2024-02-15T00:14:26;100655.19;;;9.62;100.00
39443;BME280;25147;52.142;9.960;2024-02-15T00:16:54;100707.19;;;9.96;100.00
39443;BME280;25147;52.142;9.960;2024-02-15T00:19:20;100692.47;;;9.82;100.00
39443;BME280;25147;52.142;9.960;2024-02-15T00:21:47;100675.97;;;9.77;100.00
39443;BME280;25147;52.142;9.960;2024-02-15T00:24:16;100655.16;;;9.65;100.00
39443;BME280;25147;52.142;9.960;2024-02-15T00:26:42;100691.56;;;9.87;100.00
39443;BME280;25147;52.142;9.960;2024-02-15T00:29:09;100682.88;;;9.84;100.00
39443;BME280;25147;52.142;9.960;2024-02-15T00:31:36;100708.00;;;10.01;100.00
39443;BME280;25147;52.142;9.960;2024-02-15T00:34:03;100664.63;;;9.78;100.00
39443;BME280;25147;52.142;9.960;2024-02-15T00:36:31;100691.56;;;9.90;100.00
39443;BME280;25147;52.142;9.960;2024-02-15T00:38:58;100707.09;;;10.05;100.00
39443;BME280;25147;52.142;9.960;2024-02-15T00:41:27;100704.56;;;9.97;100.00
39443;BME280;25147;52.142;9.960;2024-02-15T00:43:53;100649.00;;;9.71;100.00
39443;BME280;25147;52.142;9.960;2024-02-15T00:46:20;100715.84;;;10.04;100.00
39443;BME280;25147;52.142;9.960;2024-02-15T00:48:47;100645.59;;;9.64;100.00
39443;BME280;25147;52.142;9.960;2024-02-15T00:51:14;100728.00;;;10.07;100.00
39443;BME280;25147;52.142;9.960;2024-02-15T00:53:40;100697.63;;;9.93;100.00
39443;BME280;25147;52.142;9.960;2024-02-15T00:56:07;100719.31;;;10.06;100.00
39443;BME280;25147;52.142;9.960;2024-02-15T00:58:35;100716.69;;;10.06;100.00
39443;BME280;25147;52.142;9.960;2024-02-15T01:01:02;100621.31;;;9.51;100.00
39443;BME280;25147;52.142;9.960;2024-02-15T01:03:29;100686.41;;;9.80;100.00
39443;BME280;25147;52.142;9.960;2024-02-15T01:05:57;100717.56;;;10.07;100.00
39443;BME280;25147;52.142;9.960;2024-02-15T01:08:24;100698.50;;;9.91;100.00
39443;BME280;25147;52.142;9.960;2024-02-15T01:10:50;100730.63;;;10.07;100.00
39443;BME280;25147;52.142;9.960;2024-02-15T01:13:18;100683.81;;;9.76;100.00
39443;BME280;25147;52.142;9.960;2024-02-15T01:15:46;100633.47;;;9.52;100.00
39443;BME280;25147;52.142;9.960;2024-02-15T01:18:13;100726.25;;;10.07;100.00
39443;BME280;25147;52.142;9.960;2024-02-15T01:20:39;100736.72;;;10.07;100.00
39443;BME280;25147;52.142;9.960;2024-02-15T01:23:06;100722.78;;;10.08;100.00
39443;BME280;25147;52.142;9.960;2024-02-15T01:25:33;100681.16;;;9.82;100.00
39443;BME280;25147;52.142;9.960;2024-02-15T01:28:00;100729.75;;;10.08;100.00
39443;BME280;25147;52.142;9.960;2024-02-15T01:30:27;100647.34;;;9.65;100.00
39443;BME280;25147;52.142;9.960;2024-02-15T01:32:55;100654.28;;;9.64;100.00
39443;BME280;25147;52.142;9.960;2024-02-15T01:35:22;100546.00;;;8.94;100.00
39443;BME280;25147;52.142;9.960;2024-02-15T01:37:50;100600.59;;;9.28;100.00
39443;BME280;25147;52.142;9.960;2024-02-15T01:40:16;100548.63;;;8.96;100.00
39443;BME280;25147;52.142;9.960;2024-02-15T01:42:45;100507.03;;;8.71;100.00
39443;BME280;25147;52.142;9.960;2024-02-15T01:45:12;100674.34;;;9.62;100.00
39443;BME280;25147;52.142;9.960;2024-02-15T01:47:40;100671.72;;;9.64;100.00
39443;BME280;25147;52.142;9.960;2024-02-15T01:50:10;100680.38;;;9.72;100.00
39443;BME280;25147;52.142;9.960;2024-02-15T01:52:37;100687.22;;;9.87;100.00
39443;BME280;25147;52.142;9.960;2024-02-15T01:55:06;100706.34;;;9.95;100.00
39443;BME280;25147;52.142;9.960;2024-02-15T01:57:34;100701.91;;;10.02;100.00
39443;BME280;25147;52.142;9.960;2024-02-15T02:00:04;100652.50;;;9.68;100.00
39443;BME280;25147;52.142;9.960;2024-02-15T02:02:32;100637.75;;;9.64;100.00
39443;BME280;25147;52.142;9.960;2024-02-15T02:05:01;100681.09;;;9.88;100.00
39443;BME280;25147;52.142;9.960;2024-02-15T02:07:30;100542.44;;;9.04;100.00
39443;BME280;25147;52.142;9.960;2024-02-15T02:09:56;100706.28;;;10.00;100.00
39443;BME280;25147;52.142;9.960;2024-02-15T02:12:23;100692.38;;;9.95;100.00
39443;BME280;25147;52.142;9.960;2024-02-15T02:14:53;100658.53;;;9.76;100.00
39443;BME280;25147;52.142;9.960;2024-02-15T02:17:20;100673.25;;;9.87;100.00
39443;BME280;25147;52.142;9.960;2024-02-15T02:19:47;100632.47;;;9.69;100.00
39443;BME280;25147;52.142;9.960;2024-02-15T02:22:16;100655.00;;;9.82;100.00
39443;BME280;25147;52.142;9.960;2024-02-15T02:24:56;100574.34;;;9.42;100.00
39443;BME280;25147;52.142;9.960;2024-02-15T02:27:24;100674.84;;;10.03;100.00
39443;BME280;25147;52.142;9.960;2024-02-15T02:29:53;100676.59;;;10.02;100.00
39443;BME280;25147;52.142;9.960;2024-02-15T02:32:20;100652.44;;;9.77;100.00
39443;BME280;25147;52.142;9.960;2024-02-15T02:34:47;100676.66;;;9.95;100.00
39443;BME280;25147;52.142;9.960;2024-02-15T02:37:13;100654.16;;;9.81;100.00
39443;BME280;25147;52.142;9.960;2024-02-15T02:39:41;100663.66;;;9.89;100.00
39443;BME280;25147;52.142;9.960;2024-02-15T02:42:09;100694.06;;;10.02;100.00
39443;BME280;25147;52.142;9.960;2024-02-15T02:44:36;100636.78;;;9.73;100.00
39443;BME280;25147;52.142;9.960;2024-02-15T02:47:03;100694.91;;;10.04;100.00
39443;BME280;25147;52.142;9.960;2024-02-15T02:49:30;100668.94;;;9.87;100.00
39443;BME280;25147;52.142;9.960;2024-02-15T02:51:57;100692.25;;;10.09;100.00
39443;BME280;25147;52.142;9.960;2024-02-15T02:54:24;100698.31;;;10.12;100.00
39443;BME280;25147;52.142;9.960;2024-02-15T02:56:50;100667.91;;;10.00;100.00
39443;BME280;25147;52.142;9.960;2024-02-15T02:59:18;100638.47;;;9.78;100.00
39443;BME280;25147;52.142;9.960;2024-02-15T03:01:45;100660.97;;;9.99;100.00
39443;BME280;25147;52.142;9.960;2024-02-15T03:04:12;100699.06;;;10.23;100.00
39443;BME280;25147;52.142;9.960;2024-02-15T03:06:42;100688.66;;;10.17;100.00
39443;BME280;25147;52.142;9.960;2024-02-15T03:09:09;100668.72;;;10.07;100.00
39443;BME280;25147;52.142;9.960;2024-02-15T03:11:36;100630.59;;;9.83;100.00
39443;BME280;25147;52.142;9.960;2024-02-15T03:14:03;100699.91;;;10.27;100.00
39443;BME280;25147;52.142;9.960;2024-02-15T03:16:32;100692.06;;;10.27;100.00
39443;BME280;25147;52.142;9.960;2024-02-15T03:18:59;100693.88;;;10.20;100.00
39443;BME280;25147;52.142;9.960;2024-02-15T03:21:28;100689.50;;;10.21;100.00
39443;BME280;25147;52.142;9.960;2024-02-15T03:23:54;100690.34;;;10.21;100.00
39443;BME280;25147;52.142;9.960;2024-02-15T03:26:29;100699.91;;;10.29;100.00
39443;BME280;25147;52.142;9.960;2024-02-15T03:28:56;100640.94;;;9.95;100.00
39443;BME280;25147;52.142;9.960;2024-02-15T03:31:23;100660.97;;;9.99;100.00
39443;BME280;25147;52.142;9.960;2024-02-15T03:33:51;100631.47;;;9.83;100.00
39443;BME280;25147;52.142;9.960;2024-02-15T03:36:19;100673.84;;;10.18;100.00
39443;BME280;25147;52.142;9.960;2024-02-15T03:38:47;100657.47;;;9.99;100.00
39443;BME280;25147;52.142;9.960;2024-02-15T03:41:14;100672.22;;;10.08;100.00
39443;BME280;25147;52.142;9.960;2024-02-15T03:43:41;100700.72;;;10.34;100.00
39443;BME280;25147;52.142;9.960;2024-02-15T03:46:08;100684.25;;;10.22;100.00
39443;BME280;25147;52.142;9.960;2024-02-15T03:48:37;100685.94;;;10.28;100.00
39443;BME280;25147;52.142;9.960;2024-02-15T03:51:06;100702.44;;;10.38;100.00
39443;BME280;25147;52.142;9.960;2024-02-15T03:53:33;100692.06;;;10.30;100.00
39443;BME280;25147;52.142;9.960;2024-02-15T03:56:03;100653.06;;;10.06;100.00
39443;BME280;25147;52.142;9.960;2024-02-15T03:58:30;100701.50;;;10.43;100.00
39443;BME280;25147;52.142;9.960;2024-02-15T04:00:58;100712.81;;;10.44;100.00
39443;BME280;25147;52.142;9.960;2024-02-15T04:03:25;100698.94;;;10.39;100.00
39443;BME280;25147;52.142;9.960;2024-02-15T04:05:52;100710.19;;;10.47;100.00
39443;BME280;25147;52.142;9.960;2024-02-15T04:08:20;100656.44;;;10.14;100.00
39443;BME280;25147;52.142;9.960;2024-02-15T04:10:47;100679.09;;;10.16;100.00
39443;BME280;25147;52.142;9.960;2024-02-15T04:13:13;100676.41;;;10.21;100.00
39443;BME280;25147;52.142;9.960;2024-02-15T04:15:40;100705.94;;;10.35;100.00
39443;BME280;25147;52.142;9.960;2024-02-15T04:18:09;100702.50;;;10.33;100.00
39443;BME280;25147;52.142;9.960;2024-02-15T04:20:36;100720.75;;;10.39;100.00
39443;BME280;25147;52.142;9.960;2024-02-15T04:23:03;100712.91;;;10.38;100.00
39443;BME280;25147;52.142;9.960;2024-02-15T04:25:31;100643.56;;;9.95;100.00
39443;BME280;25147;52.142;9.960;2024-02-15T04:27:59;100702.47;;;10.36;100.00
39443;BME280;25147;52.142;9.960;2024-02-15T04:30:29;100724.19;;;10.44;100.00
39443;BME280;25147;52.142;9.960;2024-02-15T04:32:56;100658.28;;;10.06;100.00
39443;BME280;25147;52.142;9.960;2024-02-15T04:35:22;100577.72;;;9.53;100.00
39443;BME280;25147;52.142;9.960;2024-02-15T04:37:49;100690.34;;;10.21;100.00
39443;BME280;25147;52.142;9.960;2024-02-15T04:40:18;100685.16;;;10.20;100.00
39443;BME280;25147;52.142;9.960;2024-02-15T04:42:46;100716.34;;;10.43;100.00
39443;BME280;25147;52.142;9.960;2024-02-15T04:45:14;100714.59;;;10.43;100.00
39443;BME280;25147;52.142;9.960;2024-02-15T04:47:41;100713.75;;;10.41;100.00
39443;BME280;25147;52.142;9.960;2024-02-15T04:50:09;100710.25;;;10.41;100.00
39443;BME280;25147;52.142;9.960;2024-02-15T04:52:35;100704.19;;;10.37;100.00
39443;BME280;25147;52.142;9.960;2024-02-15T04:55:04;100646.16;;;9.97;100.00
39443;BME280;25147;52.142;9.960;2024-02-15T04:57:31;100654.00;;;9.97;100.00
39443;BME280;25147;52.142;9.960;2024-02-15T05:00:01;100674.91;;;9.98;100.00
39443;BME280;25147;52.142;9.960;2024-02-15T05:02:34;100671.50;;;9.92;100.00
39443;BME280;25147;52.142;9.960;2024-02-15T05:05:06;100688.78;;;10.05;100.00
39443;BME280;25147;52.142;9.960;2024-02-15T05:07:33;100620.28;;;9.68;100.00
39443;BME280;25147;52.142;9.960;2024-02-15T05:10:00;100677.50;;;10.00;100.00
39443;BME280;25147;52.142;9.960;2024-02-15T05:12:32;100719.97;;;10.25;100.00
39443;BME280;25147;52.142;9.960;2024-02-15T05:15:00;100706.16;;;10.12;100.00
39443;BME280;25147;52.142;9.960;2024-02-15T05:17:27;100725.19;;;10.30;100.00
39443;BME280;25147;52.142;9.960;2024-02-15T05:19:55;100690.53;;;10.08;100.00
39443;BME280;25147;52.142;9.960;2024-02-15T05:22:24;100662.75;;;9.93;100.00
39443;BME280;25147;52.142;9.960;2024-02-15T05:24:54;100725.19;;;10.33;100.00
39443;BME280;25147;52.142;9.960;2024-02-15T05:27:21;100720.84;;;10.25;100.00
39443;BME280;25147;52.142;9.960;2024-02-15T05:29:49;100726.03;;;10.32;100.00
39443;BME280;25147;52.142;9.960;2024-02-15T05:32:20;100678.25;;;10.11;100.00
39443;BME280;25147;52.142;9.960;2024-02-15T05:34:47;100726.94;;;10.32;100.00
39443;BME280;25147;52.142;9.960;2024-02-15T05:37:14;100719.97;;;10.25;100.00
39443;BME280;25147;52.142;9.960;2024-02-15T05:39:41;100695.63;;;10.18;100.00
39443;BME280;25147;52.142;9.960;2024-02-15T05:42:07;100704.34;;;10.20;100.00
39443;BME280;25147;52.142;9.960;2024-02-15T05:44:35;100649.72;;;9.91;100.00
39443;BME280;25147;52.142;9.960;2024-02-15T05:47:03;100669.59;;;10.06;100.00
39443;BME280;25147;52.142;9.960;2024-02-15T05:49:31;100704.28;;;10.25;100.00
39443;BME280;25147;52.142;9.960;2024-02-15T05:51:58;100660.09;;;9.97;100.00
39443;BME280;25147;52.142;9.960;2024-02-15T05:54:25;100718.13;;;10.38;100.00
39443;BME280;25147;52.142;9.960;2024-02-15T05:56:52;100641.88;;;9.91;100.00
39443;BME280;25147;52.142;9.960;2024-02-15T05:59:20;100703.41;;;10.31;100.00
39443;BME280;25147;52.142;9.960;2024-02-15T06:01:47;100708.63;;;10.31;100.00
39443;BME280;25147;52.142;9.960;2024-02-15T06:04:14;100656.59;;;9.98;100.00
39443;BME280;25147;52.142;9.960;2024-02-15T06:06:43;100714.72;;;10.33;100.00
39443;BME280;25147;52.142;9.960;2024-02-15T06:09:14;100724.22;;;10.40;100.00
39443;BME280;25147;52.142;9.960;2024-02-15T06:11:40;100707.72;;;10.33;100.00
39443;BME280;25147;52.142;9.960;2024-02-15T06:14:09;100693.88;;;10.22;100.00
39443;BME280;25147;52.142;9.960;2024-02-15T06:16:42;100714.69;;;10.34;100.00
39443;BME280;25147;52.142;9.960;2024-02-15T06:19:09;100701.66;;;10.27;100.00
39443;BME280;25147;52.142;9.960;2024-02-15T06:21:36;100726.88;;;10.38;100.00
39443;BME280;25147;52.142;9.960;2024-02-15T06:24:04;100504.97;;;9.10;100.00
39443;BME280;25147;52.142;9.960;2024-02-15T06:26:31;100554.34;;;9.38;100.00
39443;BME280;25147;52.142;9.960;2024-02-15T06:29:00;100713.06;;;10.19;100.00
39443;BME280;25147;52.142;9.960;2024-02-15T06:31:44;100718.19;;;10.35;100.00
39443;BME280;25147;52.142;9.960;2024-02-15T06:34:28;100732.91;;;10.45;100.00
39443;BME280;25147;52.142;9.960;2024-02-15T06:37:35;100731.16;;;10.44;100.00
39443;BME280;25147;52.142;9.960;2024-02-15T06:40:21;100728.53;;;10.44;100.00
39443;BME280;25147;52.142;9.960;2024-02-15T06:42:48;100733.75;;;10.46;100.00
39443;BME280;25147;52.142;9.960;2024-02-15T06:45:15;100739.00;;;10.46;100.00
39443;BME280;25147;52.142;9.960;2024-02-15T06:47:43;100740.75;;;10.47;100.00
39443;BME280;25147;52.142;9.960;2024-02-15T06:50:10;100738.09;;;10.48;100.00
39443;BME280;25147;52.142;9.960;2024-02-15T06:52:37;100691.28;;;10.17;100.00
39443;BME280;25147;52.142;9.960;2024-02-15T06:55:07;100744.22;;;10.50;100.00
39443;BME280;25147;52.142;9.960;2024-02-15T06:57:35;100745.06;;;10.51;100.00
39443;BME280;25147;52.142;9.960;2024-02-15T07:00:02;100720.75;;;10.39;100.00
39443;BME280;25147;52.142;9.960;2024-02-15T07:02:30;100723.41;;;10.35;100.00
39443;BME280;25147;52.142;9.960;2024-02-15T07:04:58;100717.25;;;10.40;100.00
39443;BME280;25147;52.142;9.960;2024-02-15T07:07:25;100557.78;;;9.43;100.00
39443;BME280;25147;52.142;9.960;2024-02-15T07:09:52;100562.97;;;9.49;100.00
39443;BME280;25147;52.142;9.960;2024-02-15T07:12:19;100536.94;;;9.35;100.00
39443;BME280;25147;52.142;9.960;2024-02-15T07:14:48;100741.53;;;10.56;100.00
39443;BME280;25147;52.142;9.960;2024-02-15T07:17:16;100486.72;;;9.06;100.00
39443;BME280;25147;52.142;9.960;2024-02-15T07:19:43;100505.72;;;9.21;100.00
39443;BME280;25147;52.142;9.960;2024-02-15T07:22:10;100668.56;;;10.19;100.00
39443;BME280;25147;52.142;9.960;2024-02-15T07:24:37;100482.53;;;8.86;100.00
39443;BME280;25147;52.142;9.960;2024-02-15T07:27:05;100611.41;;;9.86;100.00
39443;BME280;25147;52.142;9.960;2024-02-15T07:29:32;100741.53;;;10.56;100.00
39443;BME280;25147;52.142;9.960;2024-02-15T07:32:02;100618.53;;;9.71;100.00
39443;BME280;25147;52.142;9.960;2024-02-15T07:34:29;100748.47;;;10.56;100.00
39443;BME280;25147;52.142;9.960;2024-02-15T07:36:56;100638.28;;;10.01;100.00
39443;BME280;25147;52.142;9.960;2024-02-15T07:39:24;100620.94;;;9.90;100.00
39443;BME280;25147;52.142;9.960;2024-02-15T07:41:53;100484.06;;;9.10;100.00
39443;BME280;25147;52.142;9.960;2024-02-15T07:44:22;100542.06;;;9.48;100.00
39443;BME280;25147;52.142;9.960;2024-02-15T07:46:50;100492.72;;;9.14;100.00
39443;BME280;25147;52.142;9.960;2024-02-15T07:49:18;100657.19;;;10.27;100.00
39443;BME280;25147;52.142;9.960;2024-02-15T07:51:45;100699.66;;;10.53;100.00
39443;BME280;25147;52.142;9.960;2024-02-15T07:54:18;100727.50;;;10.60;100.00
39443;BME280;25147;52.142;9.960;2024-02-15T07:56:46;100501.28;;;9.30;100.00
39443;BME280;25147;52.142;9.960;2024-02-15T07:59:14;100301.28;;;8.19;100.00
39443;BME280;25147;52.142;9.960;2024-02-15T08:01:42;100508.28;;;9.29;100.00
39443;BME280;25147;52.142;9.960;2024-02-15T08:04:11;100342.00;;;8.41;100.00
39443;BME280;25147;52.142;9.960;2024-02-15T08:06:42;100625.94;;;10.13;100.00
39443;BME280;25147;52.142;9.960;2024-02-15T08:09:09;100520.50;;;9.26;100.00
39443;BME280;25147;52.142;9.960;2024-02-15T08:11:39;100334.19;;;8.35;100.00
39443;BME280;25147;52.142;9.960;2024-02-15T08:14:06;100612.91;;;10.08;100.00
39443;BME280;25147;52.142;9.960;2024-02-15T08:16:36;100514.22;;;9.43;100.00
39443;BME280;25147;52.142;9.960;2024-02-15T08:19:05;100537.38;;;9.79;100.00
39443;BME280;25147;52.142;9.960;2024-02-15T08:21:33;100403.25;;;8.98;100.00
39443;BME280;25147;52.142;9.960;2024-02-15T08:24:04;100525.13;;;9.81;100.00
39443;BME280;25147;52.142;9.960;2024-02-15T08:26:32;100563.28;;;10.02;100.00
39443;BME280;25147;52.142;9.960;2024-02-15T08:28:59;100534.72;;;9.85;100.00
39443;BME280;25147;52.142;9.960;2024-02-15T08:31:26;100381.59;;;8.85;100.00
39443;BME280;25147;52.142;9.960;2024-02-15T08:33:53;100644.66;;;10.55;100.00
39443;BME280;25147;52.142;9.960;2024-02-15T08:36:19;100528.56;;;9.88;100.00
39443;BME280;25147;52.142;9.960;2024-02-15T08:38:47;100705.19;;;11.01;100.00
39443;BME280;25147;52.142;9.960;2024-02-15T08:41:18;100710.34;;;11.04;100.00
39443;BME280;25147;52.142;9.960;2024-02-15T08:43:46;100481.59;;;9.78;100.00
39443;BME280;25147;52.142;9.960;2024-02-15T08:46:14;100351.81;;;9.03;100.00
39443;BME280;25147;52.142;9.960;2024-02-15T08:48:40;100603.72;;;10.51;100.00
39443;BME280;25147;52.142;9.960;2024-02-15T08:51:09;100511.88;;;9.98;100.00
39443;BME280;25147;52.142;9.960;2024-02-15T08:53:35;100556.03;;;10.24;100.00
39443;BME280;25147;52.142;9.960;2024-02-15T08:56:24;100622.63;;;10.73;100.00
39443;BME280;25147;52.142;9.960;2024-02-15T08:58:53;100706.53;;;11.30;100.00
39443;BME280;25147;52.142;9.960;2024-02-15T09:01:20;100681.34;;;11.20;100.00
39443;BME280;25147;52.142;9.960;2024-02-15T09:03:48;100700.34;;;11.34;100.00
39443;BME280;25147;52.142;9.960;2024-02-15T09:06:14;100695.13;;;11.33;100.00
39443;BME280;25147;52.142;9.960;2024-02-15T09:08:41;100655.25;;;11.11;100.00
39443;BME280;25147;52.142;9.960;2024-02-15T09:11:08;100673.31;;;11.29;100.00
39443;BME280;25147;52.142;9.960;2024-02-15T09:13:39;100679.38;;;11.34;100.00
39443;BME280;25147;52.142;9.960;2024-02-15T09:16:06;100694.09;;;11.43;100.00
39443;BME280;25147;52.142;9.960;2024-02-15T09:18:33;100691.38;;;11.49;100.00
39443;BME280;25147;52.142;9.960;2024-02-15T09:21:00;100658.41;;;11.34;100.00
39443;BME280;25147;52.142;9.960;2024-02-15T09:23:27;100706.03;;;11.61;100.00
39443;BME280;25147;52.142;9.960;2024-02-15T09:25:53;100639.50;;;11.12;100.00
39443;BME280;25147;52.142;9.960;2024-02-15T09:28:20;100654.13;;;11.29;100.00
39443;BME280;25147;52.142;9.960;2024-02-15T09:30:49;100708.66;;;11.61;100.00
39443;BME280;25147;52.142;9.960;2024-02-15T09:33:18;100678.31;;;11.46;100.00
39443;BME280;25147;52.142;9.960;2024-02-15T09:35:45;100688.75;;;11.49;100.00
39443;BME280;25147;52.142;9.960;2024-02-15T09:38:12;100699.91;;;11.62;100.00
39443;BME280;25147;52.142;9.960;2024-02-15T09:40:42;100505.03;;;10.56;100.00
39443;BME280;25147;52.142;9.960;2024-02-15T09:43:09;100615.06;;;11.12;100.00
39443;BME280;25147;52.142;9.960;2024-02-15T09:45:39;100670.19;;;11.63;100.00
39443;BME280;25147;52.142;9.960;2024-02-15T09:48:10;100474.66;;;10.44;100.00
39443;BME280;25147;52.142;9.960;2024-02-15T09:50:39;100644.91;;;11.57;100.00
39443;BME280;25147;52.142;9.960;2024-02-15T09:53:08;100661.28;;;11.70;100.00
39443;BME280;25147;52.142;9.960;2024-02-15T09:55:35;100521.94;;;10.91;100.00
39443;BME280;25147;52.142;9.960;2024-02-15T09:58:03;100506.38;;;10.83;100.00
39443;BME280;25147;52.142;9.960;2024-02-15T10:00:31;100700.22;;;11.98;100.00
39443;BME280;25147;52.142;9.960;2024-02-15T10:03:00;100689.91;;;11.84;100.00
39443;BME280;25147;52.142;9.960;2024-02-15T10:05:30;100489.19;;;10.67;100.00
39443;BME280;25147;52.142;9.960;2024-02-15T10:07:57;100357.81;;;9.81;100.00
39443;BME280;25147;52.142;9.960;2024-02-15T10:10:27;100708.09;;;11.98;100.00
39443;BME280;25147;52.142;9.960;2024-02-15T10:12:55;100653.63;;;11.58;100.00
39443;BME280;25147;52.142;9.960;2024-02-15T10:15:30;100603.34;;;11.34;100.00
39443;BME280;25147;52.142;9.960;2024-02-15T10:17:57;100706.47;;;11.91;100.00
39443;BME280;25147;52.142;9.960;2024-02-15T10:20:25;100716.81;;;11.98;100.00
39443;BME280;25147;52.142;9.960;2024-02-15T10:23:09;100659.63;;;11.66;100.00
39443;BME280;25147;52.142;9.960;2024-02-15T10:25:36;100716.06;;;11.92;100.00
39443;BME280;25147;52.142;9.960;2024-02-15T10:28:03;100721.19;;;11.99;100.00
39443;BME280;25147;52.142;9.960;2024-02-15T10:30:33;100719.53;;;11.94;100.00
39443;BME280;25147;52.142;9.960;2024-02-15T10:33:01;100704.78;;;11.85;100.00
39443;BME280;25147;52.142;9.960;2024-02-15T10:35:28;100700.47;;;11.81;100.00
39443;BME280;25147;52.142;9.960;2024-02-15T10:38:07;100726.41;;;12.01;100.00
39443;BME280;25147;52.142;9.960;2024-02-15T10:40:35;100703.75;;;11.97;100.00
39443;BME280;25147;52.142;9.960;2024-02-15T10:43:03;100696.81;;;11.93;100.00
39443;BME280;25147;52.142;9.960;2024-02-15T10:45:30;100715.72;;;12.12;100.00
39443;BME280;25147;52.142;9.960;2024-02-15T10:47:57;100662.75;;;11.88;100.00
39443;BME280;25147;52.142;9.960;2024-02-15T10:50:24;100687.09;;;11.98;100.00
39443;BME280;25147;52.142;9.960;2024-02-15T10:52:54;100631.66;;;11.67;100.00
39443;BME280;25147;52.142;9.960;2024-02-15T10:55:31;100655.06;;;11.79;100.00
39443;BME280;25147;52.142;9.960;2024-02-15T10:58:06;100614.31;;;11.58;100.00
39443;BME280;25147;52.142;9.960;2024-02-15T11:00:33;100686.25;;;11.96;100.00
39443;BME280;25147;52.142;9.960;2024-02-15T11:03:04;100677.56;;;11.92;100.00
39443;BME280;25147;52.142;9.960;2024-02-15T11:05:33;100654.22;;;11.75;100.00
39443;BME280;25147;52.142;9.960;2024-02-15T11:08:03;100623.94;;;11.57;100.00
39443;BME280;25147;52.142;9.960;2024-02-15T11:10:32;100618.78;;;11.51;100.00
39443;BME280;25147;52.142;9.960;2024-02-15T11:13:00;100607.53;;;11.46;100.00
39443;BME280;25147;52.142;9.960;2024-02-15T11:15:41;100621.41;;;11.53;100.00
39443;BME280;25147;52.142;9.960;2024-02-15T11:18:11;100644.13;;;11.52;100.00
39443;BME280;25147;52.142;9.960;2024-02-15T11:20:50;100636.91;;;11.65;100.00
39443;BME280;25147;52.142;9.960;2024-02-15T11:23:26;100672.31;;;11.92;100.00
39443;BME280;25147;52.142;9.960;2024-02-15T11:25:58;100705.56;;;11.93;100.00
39443;BME280;25147;52.142;9.960;2024-02-15T11:28:39;100604.72;;;11.58;100.00
39443;BME280;25147;52.142;9.960;2024-02-15T11:31:08;100678.34;;;11.99;100.00
39443;BME280;25147;52.142;9.960;2024-02-15T11:33:35;100669.56;;;12.01;100.00
39443;BME280;25147;52.142;9.960;2024-02-15T11:36:03;100626.13;;;11.82;100.00
39443;BME280;25147;52.142;9.960;2024-02-15T11:38:31;100675.53;;;12.08;100.00
39443;BME280;25147;52.142;9.960;2024-02-15T11:41:06;100662.41;;;12.08;100.00
39443;BME280;25147;52.142;9.960;2024-02-15T11:43:55;100520.56;;;11.21;100.00
39443;BME280;25147;52.142;9.960;2024-02-15T11:46:24;100659.78;;;12.08;100.00
39443;BME280;25147;52.142;9.960;2024-02-15T11:48:52;100555.97;;;11.45;100.00
39443;BME280;25147;52.142;9.960;2024-02-15T11:51:30;100315.53;;;10.12;100.00
39443;BME280;25147;52.142;9.960;2024-02-15T11:54:01;100630.94;;;12.07;100.00
39443;BME280;25147;52.142;9.960;2024-02-15T11:59:17;100260.94;;;9.89;100.00
39443;BME280;25147;52.142;9.960;2024-02-15T12:01:55;100399.75;;;10.90;100.00
39443;BME280;25147;52.142;9.960;2024-02-15T12:04:40;100625.31;;;12.27;100.00
39443;BME280;25147;52.142;9.960;2024-02-15T12:07:25;100462.03;;;11.22;100.00
39443;BME280;25147;52.142;9.960;2024-02-15T12:10:15;100518.72;;;11.74;100.00
39443;BME280;25147;52.142;9.960;2024-02-15T12:13:01;100616.44;;;12.34;100.00
39443;BME280;25147;52.142;9.960;2024-02-15T12:15:58;100469.50;;;11.43;100.00
39443;BME280;25147;52.142;9.960;2024-02-15T12:18:43;100275.34;;;10.16;100.00
39443;BME280;25147;52.142;9.960;2024-02-15T12:21:14;100531.81;;;11.76;100.00
39443;BME280;25147;52.142;9.960;2024-02-15T12:23:46;100271.84;;;10.17;100.00
39443;BME280;25147;52.142;9.960;2024-02-15T12:26:13;100218.97;;;9.99;100.00
39443;BME280;25147;52.142;9.960;2024-02-15T12:28:42;100533.44;;;11.83;100.00
39443;BME280;25147;52.142;9.960;2024-02-15T12:31:12;100464.34;;;11.39;100.00
39443;BME280;25147;52.142;9.960;2024-02-15T12:33:39;100573.16;;;12.11;100.00
39443;BME280;25147;52.142;9.960;2024-02-15T12:36:07;100548.94;;;11.97;100.00
39443;BME280;25147;52.142;9.960;2024-02-15T12:38:34;100551.72;;;11.89;100.00
39443;BME280;25147;52.142;9.960;2024-02-15T12:41:04;100587.88;;;12.17;100.00
39443;BME280;25147;52.142;9.960;2024-02-15T12:43:31;100567.97;;;12.07;100.00
39443;BME280;25147;52.142;9.960;2024-02-15T12:45:59;100583.72;;;12.07;100.00
39443;BME280;25147;52.142;9.960;2024-02-15T12:48:26;100572.50;;;11.98;100.00
39443;BME280;25147;52.142;9.960;2024-02-15T12:50:53;100588.94;;;12.08;100.00
39443;BME280;25147;52.142;9.960;2024-02-15T12:53:21;100563.06;;;11.90;100.00
39443;BME280;25147;52.142;9.960;2024-02-15T12:55:57;100530.09;;;11.75;100.00